sensor_id;sensor_type;location;lat;lon;timestamp;pressure;altitude;pressure_sealevel;temperature;humidity
63399;BME280;49533;-34.520;150.798;2022-10-16T00:00:47;100892.47;;;18.43;56.34
63399;BME280;49533;-34.520;150.798;2022-10-16T00:03:14;100894.19;;;18.47;56.52
63399;BME280;49533;-34.520;150.798;2022-10-16T00:05:42;100886.28;;;18.46;55.63
63399;BME280;49533;-34.520;150.798;2022-10-16T00:08:11;100897.38;;;18.50;55.75
63399;BME280;49533;-34.520;150.798;2022-10-16T00:10:39;100886.84;;;18.52;55.82
63399;BME280;49533;-34.520;150.798;2022-10-16T00:13:07;100886.91;;;18.55;55.37
63399;BME280;49533;-34.520;150.798;2022-10-16T00:15:36;100881.94;;;18.61;55.12
63399;BME280;49533;-34.520;150.798;2022-10-16T00:18:06;100880.44;;;18.63;55.06
63399;BME280;49533;-34.520;150.798;2022-10-16T00:20:34;100874.16;;;18.63;55.23
63399;BME280;49533;-34.520;150.798;2022-10-16T00:23:04;100864.38;;;18.65;55.00
63399;BME280;49533;-34.520;150.798;2022-10-16T00:25:32;100872.38;;;18.71;54.90
63399;BME280;49533;-34.520;150.798;2022-10-16T00:28:00;100873.75;;;18.77;54.82
63399;BME280;49533;-34.520;150.798;2022-10-16T00:30:27;100868.69;;;18.79;54.68
63399;BME280;49533;-34.520;150.798;2022-10-16T00:32:55;100864.34;;;18.78;54.87
63399;BME280;49533;-34.520;150.798;2022-10-16T00:35:23;100866.38;;;18.81;54.24
63399;BME280;49533;-34.520;150.798;2022-10-16T00:37:50;100876.59;;;18.80;54.34
63399;BME280;49533;-34.520;150.798;2022-10-16T00:40:18;100869.59;;;18.83;54.42
63399;BME280;49533;-34.520;150.798;2022-10-16T00:42:45;100853.53;;;18.85;54.14
63399;BME280;49533;-34.520;150.798;2022-10-16T00:45:12;100847.81;;;18.78;54.04
63399;BME280;49533;-34.520;150.798;2022-10-16T00:47:43;100864.97;;;18.87;54.18
63399;BME280;49533;-34.520;150.798;2022-10-16T00:50:20;100853.25;;;18.90;54.03
63399;BME280;49533;-34.520;150.798;2022-10-16T00:52:50;100846.56;;;18.91;54.00
63399;BME280;49533;-34.520;150.798;2022-10-16T00:55:18;100852.97;;;18.95;53.79
63399;BME280;49533;-34.520;150.798;2022-10-16T00:57:46;100854.31;;;19.01;54.04
63399;BME280;49533;-34.520;150.798;2022-10-16T01:00:23;100847.22;;;19.00;53.85
63399;BME280;49533;-34.520;150.798;2022-10-16T01:03:28;100848.09;;;18.88;53.21
63399;BME280;49533;-34.520;150.798;2022-10-16T01:09:05;100838.25;;;18.87;53.20
63399;BME280;49533;-34.520;150.798;2022-10-16T01:11:44;100846.78;;;18.82;52.41
63399;BME280;49533;-34.520;150.798;2022-10-16T01:14:19;100844.63;;;18.76;52.30
63399;BME280;49533;-34.520;150.798;2022-10-16T01:16:55;100834.47;;;18.64;52.01
63399;BME280;49533;-34.520;150.798;2022-10-16T01:19:38;100842.38;;;18.65;52.91
63399;BME280;49533;-34.520;150.798;2022-10-16T01:22:09;100844.25;;;18.61;52.15
63399;BME280;49533;-34.520;150.798;2022-10-16T01:24:43;100841.03;;;18.59;51.97
63399;BME280;49533;-34.520;150.798;2022-10-16T01:27:15;100825.06;;;18.65;52.27
63399;BME280;49533;-34.520;150.798;2022-10-16T01:29:48;100828.00;;;18.72;52.84
63399;BME280;49533;-34.520;150.798;2022-10-16T01:32:24;100825.81;;;18.78;53.13
63399;BME280;49533;-34.520;150.798;2022-10-16T01:35:04;100826.78;;;18.85;53.24
63399;BME280;49533;-34.520;150.798;2022-10-16T01:37:46;100824.94;;;18.89;52.69
63399;BME280;49533;-34.520;150.798;2022-10-16T01:40:18;100833.09;;;18.86;52.57
63399;BME280;49533;-34.520;150.798;2022-10-16T01:42:52;100820.03;;;18.83;51.95
63399;BME280;49533;-34.520;150.798;2022-10-16T01:45:22;100833.88;;;18.86;51.57
63399;BME280;49533;-34.520;150.798;2022-10-16T01:47:51;100827.84;;;18.81;51.62
63399;BME280;49533;-34.520;150.798;2022-10-16T01:50:20;100825.53;;;18.83;51.81
63399;BME280;49533;-34.520;150.798;2022-10-16T01:52:51;100820.31;;;18.78;51.93
63399;BME280;49533;-34.520;150.798;2022-10-16T01:55:25;100823.69;;;18.87;52.12
63399;BME280;49533;-34.520;150.798;2022-10-16T01:57:54;100826.44;;;18.87;51.69
63399;BME280;49533;-34.520;150.798;2022-10-16T02:00:22;100837.06;;;18.88;52.25
63399;BME280;49533;-34.520;150.798;2022-10-16T02:02:52;100823.69;;;18.87;52.18
63399;BME280;49533;-34.520;150.798;2022-10-16T02:05:36;100831.22;;;18.90;52.51
63399;BME280;49533;-34.520;150.798;2022-10-16T02:08:06;100829.47;;;18.82;50.99
63399;BME280;49533;-34.520;150.798;2022-10-16T02:10:35;100829.00;;;18.80;51.30
63399;BME280;49533;-34.520;150.798;2022-10-16T02:13:08;100824.66;;;18.79;51.62
63399;BME280;49533;-34.520;150.798;2022-10-16T02:15:36;100822.34;;;18.81;51.67
63399;BME280;49533;-34.520;150.798;2022-10-16T02:18:05;100815.97;;;18.77;52.06
63399;BME280;49533;-34.520;150.798;2022-10-16T02:20:42;100817.28;;;18.83;52.66
63399;BME280;49533;-34.520;150.798;2022-10-16T02:23:13;100821.34;;;18.89;53.10
63399;BME280;49533;-34.520;150.798;2022-10-16T02:25:45;100822.88;;;18.86;53.24
63399;BME280;49533;-34.520;150.798;2022-10-16T02:28:19;100822.06;;;18.86;53.46
63399;BME280;49533;-34.520;150.798;2022-10-16T02:30:53;100813.09;;;18.89;53.70
63399;BME280;49533;-34.520;150.798;2022-10-16T02:33:25;100803.25;;;18.88;54.11
63399;BME280;49533;-34.520;150.798;2022-10-16T02:35:54;100815.06;;;18.88;54.18
63399;BME280;49533;-34.520;150.798;2022-10-16T02:38:23;100814.47;;;18.79;54.57
63399;BME280;49533;-34.520;150.798;2022-10-16T02:40:52;100818.00;;;18.80;54.42
63399;BME280;49533;-34.520;150.798;2022-10-16T02:43:20;100816.28;;;18.91;54.51
63399;BME280;49533;-34.520;150.798;2022-10-16T02:45:47;100806.63;;;18.97;54.41
63399;BME280;49533;-34.520;150.798;2022-10-16T02:48:14;100807.59;;;19.05;54.50
63399;BME280;49533;-34.520;150.798;2022-10-16T02:50:41;100804.13;;;19.08;54.64
63399;BME280;49533;-34.520;150.798;2022-10-16T02:53:08;100806.66;;;19.17;54.56
63399;BME280;49533;-34.520;150.798;2022-10-16T02:55:35;100801.25;;;19.20;54.65
63399;BME280;49533;-34.520;150.798;2022-10-16T02:58:02;100797.41;;;19.25;54.62
63399;BME280;49533;-34.520;150.798;2022-10-16T03:00:29;100796.72;;;19.28;54.75
63399;BME280;49533;-34.520;150.798;2022-10-16T03:02:56;100796.78;;;19.31;54.79
63399;BME280;49533;-34.520;150.798;2022-10-16T03:05:23;100784.53;;;19.29;54.81
63399;BME280;49533;-34.520;150.798;2022-10-16T03:07:50;100788.16;;;19.33;54.78
63399;BME280;49533;-34.520;150.798;2022-10-16T03:10:19;100789.47;;;19.39;54.98
63399;BME280;49533;-34.520;150.798;2022-10-16T03:12:46;100790.19;;;19.36;55.28
63399;BME280;49533;-34.520;150.798;2022-10-16T03:15:13;100799.03;;;19.45;55.22
63399;BME280;49533;-34.520;150.798;2022-10-16T03:17:40;100792.38;;;19.46;55.42
63399;BME280;49533;-34.520;150.798;2022-10-16T03:20:08;100799.91;;;19.49;55.44
63399;BME280;49533;-34.520;150.798;2022-10-16T03:22:35;100786.59;;;19.51;55.61
63399;BME280;49533;-34.520;150.798;2022-10-16T03:25:02;100788.16;;;19.52;55.58
63399;BME280;49533;-34.520;150.798;2022-10-16T03:27:29;100788.97;;;19.53;55.75
63399;BME280;49533;-34.520;150.798;2022-10-16T03:29:56;100792.16;;;19.55;56.23
63399;BME280;49533;-34.520;150.798;2022-10-16T03:32:23;100779.63;;;19.58;56.31
63399;BME280;49533;-34.520;150.798;2022-10-16T03:34:51;100782.81;;;19.60;56.31
63399;BME280;49533;-34.520;150.798;2022-10-16T03:37:20;100774.59;;;19.63;56.24
63399;BME280;49533;-34.520;150.798;2022-10-16T03:39:47;100783.16;;;19.58;57.04
63399;BME280;49533;-34.520;150.798;2022-10-16T03:42:14;100788.16;;;19.52;57.70
63399;BME280;49533;-34.520;150.798;2022-10-16T03:44:41;100776.19;;;19.45;58.14
63399;BME280;49533;-34.520;150.798;2022-10-16T03:47:09;100772.16;;;19.39;58.27
63399;BME280;49533;-34.520;150.798;2022-10-16T03:49:36;100773.00;;;19.43;58.25
63399;BME280;49533;-34.520;150.798;2022-10-16T03:52:03;100770.63;;;19.41;58.67
63399;BME280;49533;-34.520;150.798;2022-10-16T03:54:30;100776.19;;;19.45;59.16
63399;BME280;49533;-34.520;150.798;2022-10-16T03:56:57;100773.38;;;19.41;59.43
63399;BME280;49533;-34.520;150.798;2022-10-16T03:59:24;100779.00;;;19.29;59.85
63399;BME280;49533;-34.520;150.798;2022-10-16T04:01:51;100771.03;;;19.24;60.54
63399;BME280;49533;-34.520;150.798;2022-10-16T04:04:18;100772.19;;;19.23;60.68
63399;BME280;49533;-34.520;150.798;2022-10-16T04:06:45;100772.47;;;19.18;60.91
63399;BME280;49533;-34.520;150.798;2022-10-16T04:09:12;100771.03;;;19.24;60.91
63399;BME280;49533;-34.520;150.798;2022-10-16T04:11:39;100776.97;;;19.26;60.95
63399;BME280;49533;-34.520;150.798;2022-10-16T04:14:06;100764.34;;;19.25;60.87
63399;BME280;49533;-34.520;150.798;2022-10-16T04:16:34;100766.16;;;19.17;60.90
63399;BME280;49533;-34.520;150.798;2022-10-16T04:19:01;100765.78;;;19.19;60.57
63399;BME280;49533;-34.520;150.798;2022-10-16T04:21:28;100766.97;;;19.18;60.30
63399;BME280;49533;-34.520;150.798;2022-10-16T04:23:56;100743.31;;;19.17;60.22
63399;BME280;49533;-34.520;150.798;2022-10-16T04:26:23;100757.97;;;19.21;59.68
63399;BME280;49533;-34.520;150.798;2022-10-16T04:28:50;100758.84;;;19.25;59.78
63399;BME280;49533;-34.520;150.798;2022-10-16T04:31:17;100758.94;;;19.28;59.75
63399;BME280;49533;-34.520;150.798;2022-10-16T04:33:44;100751.47;;;19.29;59.43
63399;BME280;49533;-34.520;150.798;2022-10-16T04:36:11;100756.09;;;19.25;58.90
63399;BME280;49533;-34.520;150.798;2022-10-16T04:38:39;100756.91;;;19.25;59.54
63399;BME280;49533;-34.520;150.798;2022-10-16T04:41:07;100768.72;;;19.26;59.54
63399;BME280;49533;-34.520;150.798;2022-10-16T04:43:35;100753.63;;;19.20;59.37
63399;BME280;49533;-34.520;150.798;2022-10-16T04:46:02;100756.22;;;19.13;59.74
63399;BME280;49533;-34.520;150.798;2022-10-16T04:48:31;100758.56;;;18.95;60.08
63399;BME280;49533;-34.520;150.798;2022-10-16T04:50:59;100763.44;;;19.01;60.07
63399;BME280;49533;-34.520;150.798;2022-10-16T04:53:26;100765.75;;;18.99;60.51
63399;BME280;49533;-34.520;150.798;2022-10-16T04:55:53;100763.38;;;18.98;61.27
63399;BME280;49533;-34.520;150.798;2022-10-16T04:58:21;100756.97;;;18.94;60.94
63399;BME280;49533;-34.520;150.798;2022-10-16T05:00:48;100763.31;;;19.14;60.38
63399;BME280;49533;-34.520;150.798;2022-10-16T05:03:15;100766.75;;;19.26;59.93
63399;BME280;49533;-34.520;150.798;2022-10-16T05:05:43;100755.81;;;19.30;59.68
63399;BME280;49533;-34.520;150.798;2022-10-16T05:08:12;100765.41;;;19.36;59.90
63399;BME280;49533;-34.520;150.798;2022-10-16T05:10:42;100761.84;;;19.36;59.33
63399;BME280;49533;-34.520;150.798;2022-10-16T05:13:09;100776.13;;;19.41;59.49
63399;BME280;49533;-34.520;150.798;2022-10-16T05:15:37;100770.63;;;19.41;59.48
63399;BME280;49533;-34.520;150.798;2022-10-16T05:18:04;100757.56;;;19.38;59.29
63399;BME280;49533;-34.520;150.798;2022-10-16T05:20:31;100763.22;;;19.45;59.15
63399;BME280;49533;-34.520;150.798;2022-10-16T05:22:59;100765.97;;;19.45;59.35
63399;BME280;49533;-34.520;150.798;2022-10-16T05:25:26;100765.28;;;19.48;59.17
63399;BME280;49533;-34.520;150.798;2022-10-16T05:27:53;100759.38;;;19.50;59.25
63399;BME280;49533;-34.520;150.798;2022-10-16T05:30:20;100759.81;;;19.52;59.16
63399;BME280;49533;-34.520;150.798;2022-10-16T05:32:49;100769.66;;;19.53;59.29
63399;BME280;49533;-34.520;150.798;2022-10-16T05:35:17;100770.84;;;19.52;59.15
63399;BME280;49533;-34.520;150.798;2022-10-16T05:37:44;100772.44;;;19.53;59.04
63399;BME280;49533;-34.520;150.798;2022-10-16T05:40:15;100774.38;;;19.52;59.09
63399;BME280;49533;-34.520;150.798;2022-10-16T05:42:43;100781.06;;;19.51;59.07
63399;BME280;49533;-34.520;150.798;2022-10-16T05:45:10;100780.69;;;19.53;59.01
63399;BME280;49533;-34.520;150.798;2022-10-16T05:47:40;100781.88;;;19.52;58.85
63399;BME280;49533;-34.520;150.798;2022-10-16T05:50:07;100788.16;;;19.52;58.85
63399;BME280;49533;-34.520;150.798;2022-10-16T05:52:35;100788.16;;;19.52;59.01
63399;BME280;49533;-34.520;150.798;2022-10-16T05:55:03;100776.28;;;19.48;58.91
63399;BME280;49533;-34.520;150.798;2022-10-16T05:57:30;100780.69;;;19.53;58.91
63399;BME280;49533;-34.520;150.798;2022-10-16T05:59:57;100788.16;;;19.52;58.97
63399;BME280;49533;-34.520;150.798;2022-10-16T06:02:24;100798.06;;;19.53;59.09
63399;BME280;49533;-34.520;150.798;2022-10-16T06:04:52;100805.94;;;19.55;59.17
63399;BME280;49533;-34.520;150.798;2022-10-16T06:07:20;100801.59;;;19.54;59.11
63399;BME280;49533;-34.520;150.798;2022-10-16T06:09:49;100803.13;;;19.51;59.15
63399;BME280;49533;-34.520;150.798;2022-10-16T06:12:16;100816.63;;;19.57;59.14
63399;BME280;49533;-34.520;150.798;2022-10-16T06:14:45;100813.41;;;19.54;59.16
63399;BME280;49533;-34.520;150.798;2022-10-16T06:17:13;100816.63;;;19.57;59.58
63399;BME280;49533;-34.520;150.798;2022-10-16T06:19:41;100807.13;;;19.54;59.52
63399;BME280;49533;-34.520;150.798;2022-10-16T06:22:09;100809.88;;;19.54;59.81
63399;BME280;49533;-34.520;150.798;2022-10-16T06:24:36;100809.50;;;19.55;59.62
63399;BME280;49533;-34.520;150.798;2022-10-16T06:27:04;100817.75;;;19.55;59.48
63399;BME280;49533;-34.520;150.798;2022-10-16T06:29:31;100827.63;;;19.57;59.42
63399;BME280;49533;-34.520;150.798;2022-10-16T06:31:59;100833.16;;;19.57;59.63
63399;BME280;49533;-34.520;150.798;2022-10-16T06:34:26;100822.13;;;19.57;59.53
63399;BME280;49533;-34.520;150.798;2022-10-16T06:36:53;100831.91;;;19.54;59.62
63399;BME280;49533;-34.520;150.798;2022-10-16T06:39:21;100838.28;;;19.58;59.39
63399;BME280;49533;-34.520;150.798;2022-10-16T06:41:48;100841.88;;;19.59;59.46
63399;BME280;49533;-34.520;150.798;2022-10-16T06:44:15;100841.03;;;19.58;59.49
63399;BME280;49533;-34.520;150.798;2022-10-16T06:46:42;100848.53;;;19.58;59.28
63399;BME280;49533;-34.520;150.798;2022-10-16T06:49:09;100836.69;;;19.57;59.39
63399;BME280;49533;-34.520;150.798;2022-10-16T06:51:36;100839.63;;;19.29;60.40
63399;BME280;49533;-34.520;150.798;2022-10-16T06:54:07;100833.16;;;19.05;60.55
63399;BME280;49533;-34.520;150.798;2022-10-16T06:56:35;100841.97;;;18.95;60.38
63399;BME280;49533;-34.520;150.798;2022-10-16T06:59:02;100836.72;;;18.90;60.61
63399;BME280;49533;-34.520;150.798;2022-10-16T07:01:30;100844.81;;;18.83;60.93
63399;BME280;49533;-34.520;150.798;2022-10-16T07:03:58;100842.50;;;18.85;61.53
63399;BME280;49533;-34.520;150.798;2022-10-16T07:06:26;100842.50;;;18.85;61.89
63399;BME280;49533;-34.520;150.798;2022-10-16T07:08:54;100844.03;;;18.82;62.46
63399;BME280;49533;-34.520;150.798;2022-10-16T07:11:22;100855.38;;;18.81;62.67
63399;BME280;49533;-34.520;150.798;2022-10-16T07:13:50;100864.25;;;18.74;62.39
63399;BME280;49533;-34.520;150.798;2022-10-16T07:16:19;100864.91;;;18.71;62.12
63399;BME280;49533;-34.520;150.798;2022-10-16T07:18:47;100860.19;;;19.00;61.44
63399;BME280;49533;-34.520;150.798;2022-10-16T07:21:19;100861.75;;;19.17;60.97
63399;BME280;49533;-34.520;150.798;2022-10-16T07:23:58;100866.38;;;19.28;60.49
63399;BME280;49533;-34.520;150.798;2022-10-16T07:26:31;100870.44;;;19.34;60.29
63399;BME280;49533;-34.520;150.798;2022-10-16T07:28:59;100867.78;;;19.38;60.25
63399;BME280;49533;-34.520;150.798;2022-10-16T07:31:27;100870.59;;;19.42;60.22
63399;BME280;49533;-34.520;150.798;2022-10-16T07:33:54;100862.69;;;19.40;59.87
63399;BME280;49533;-34.520;150.798;2022-10-16T07:36:22;100870.25;;;19.43;59.83
63399;BME280;49533;-34.520;150.798;2022-10-16T07:38:49;100875.78;;;19.43;59.71
63399;BME280;49533;-34.520;150.798;2022-10-16T07:41:18;100878.94;;;19.45;59.88
63399;BME280;49533;-34.520;150.798;2022-10-16T07:43:48;100883.75;;;19.48;59.59
63399;BME280;49533;-34.520;150.798;2022-10-16T07:46:16;100884.09;;;19.47;59.87
63399;BME280;49533;-34.520;150.798;2022-10-16T07:48:44;100885.19;;;19.42;59.57
63399;BME280;49533;-34.520;150.798;2022-10-16T07:51:15;100893.88;;;19.44;59.76
63399;BME280;49533;-34.520;150.798;2022-10-16T07:53:42;100894.34;;;19.46;59.75
63399;BME280;49533;-34.520;150.798;2022-10-16T07:56:09;100888.56;;;19.51;59.73
63399;BME280;49533;-34.520;150.798;2022-10-16T07:58:37;100896.38;;;19.49;59.46
63399;BME280;49533;-34.520;150.798;2022-10-16T08:01:07;100893.97;;;19.48;59.72
63399;BME280;49533;-34.520;150.798;2022-10-16T08:03:35;100894.34;;;19.46;59.63
63399;BME280;49533;-34.520;150.798;2022-10-16T08:06:03;100906.94;;;19.47;59.64
63399;BME280;49533;-34.520;150.798;2022-10-16T08:08:31;100899.41;;;19.44;59.69
63399;BME280;49533;-34.520;150.798;2022-10-16T08:10:58;100895.84;;;19.44;59.59
63399;BME280;49533;-34.520;150.798;2022-10-16T08:13:25;100899.75;;;19.43;59.56
63399;BME280;49533;-34.520;150.798;2022-10-16T08:15:54;100904.13;;;19.44;59.45
63399;BME280;49533;-34.520;150.798;2022-10-16T08:18:22;100908.47;;;19.45;59.73
63399;BME280;49533;-34.520;150.798;2022-10-16T08:20:56;100919.03;;;19.43;59.62
63399;BME280;49533;-34.520;150.798;2022-10-16T08:23:24;100921.00;;;19.42;59.46
63399;BME280;49533;-34.520;150.798;2022-10-16T08:25:53;100923.31;;;19.40;59.84
63399;BME280;49533;-34.520;150.798;2022-10-16T08:28:21;100926.06;;;19.40;59.87
63399;BME280;49533;-34.520;150.798;2022-10-16T08:30:48;100932.66;;;19.36;59.84
63399;BME280;49533;-34.520;150.798;2022-10-16T08:33:15;100939.03;;;19.40;59.70
63399;BME280;49533;-34.520;150.798;2022-10-16T08:35:49;100944.56;;;19.40;59.99
63399;BME280;49533;-34.520;150.798;2022-10-16T08:38:16;100949.19;;;19.36;59.84
63399;BME280;49533;-34.520;150.798;2022-10-16T08:40:43;100958.78;;;19.42;59.84
63399;BME280;49533;-34.520;150.798;2022-10-16T08:43:26;100959.50;;;19.39;59.81
63399;BME280;49533;-34.520;150.798;2022-10-16T08:46:18;100961.00;;;19.36;59.66
63399;BME280;49533;-34.520;150.798;2022-10-16T08:48:54;100970.41;;;19.35;59.95
63399;BME280;49533;-34.520;150.798;2022-10-16T08:51:26;100973.16;;;19.35;59.78
63399;BME280;49533;-34.520;150.798;2022-10-16T08:53:57;100966.34;;;19.29;59.94
63399;BME280;49533;-34.520;150.798;2022-10-16T08:56:26;100969.09;;;19.29;59.87
63399;BME280;49533;-34.520;150.798;2022-10-16T08:58:54;100972.66;;;19.29;59.82
63399;BME280;49533;-34.520;150.798;2022-10-16T09:01:23;100981.28;;;19.28;59.88
63399;BME280;49533;-34.520;150.798;2022-10-16T09:04:05;100977.28;;;19.25;59.83
63399;BME280;49533;-34.520;150.798;2022-10-16T09:06:44;100983.59;;;19.26;59.62
63399;BME280;49533;-34.520;150.798;2022-10-16T09:09:25;100984.72;;;19.25;59.63
63399;BME280;49533;-34.520;150.798;2022-10-16T09:12:07;100985.09;;;19.23;59.48
63399;BME280;49533;-34.520;150.798;2022-10-16T09:14:49;100982.69;;;19.22;59.50
63399;BME280;49533;-34.520;150.798;2022-10-16T09:17:42;100981.44;;;19.19;59.44
63399;BME280;49533;-34.520;150.798;2022-10-16T09:20:27;100988.56;;;19.20;59.26
63399;BME280;49533;-34.520;150.798;2022-10-16T09:23:12;100989.69;;;19.19;59.43
63399;BME280;49533;-34.520;150.798;2022-10-16T09:25:44;100996.38;;;19.18;59.31
63399;BME280;49533;-34.520;150.798;2022-10-16T09:28:13;101003.84;;;19.18;59.17
63399;BME280;49533;-34.520;150.798;2022-10-16T09:30:41;101005.34;;;19.15;58.96
63399;BME280;49533;-34.520;150.798;2022-10-16T09:33:09;101006.94;;;19.16;59.09
63399;BME280;49533;-34.520;150.798;2022-10-16T09:35:44;101002.94;;;19.14;58.82
63399;BME280;49533;-34.520;150.798;2022-10-16T09:38:27;101013.97;;;19.14;59.17
63399;BME280;49533;-34.520;150.798;2022-10-16T09:40:57;101016.63;;;19.10;58.86
63399;BME280;49533;-34.520;150.798;2022-10-16T09:43:39;101024.97;;;19.14;59.06
63399;BME280;49533;-34.520;150.798;2022-10-16T09:46:21;101023.38;;;19.13;58.99
63399;BME280;49533;-34.520;150.798;2022-10-16T09:48:50;101027.28;;;19.11;58.91
63399;BME280;49533;-34.520;150.798;2022-10-16T09:51:22;101032.00;;;19.11;59.05
63399;BME280;49533;-34.520;150.798;2022-10-16T09:53:55;101035.09;;;19.09;58.84
63399;BME280;49533;-34.520;150.798;2022-10-16T09:56:28;101047.59;;;19.07;59.10
63399;BME280;49533;-34.520;150.798;2022-10-16T09:58:59;101050.72;;;19.05;58.87
63399;BME280;49533;-34.520;150.798;2022-10-16T10:01:37;101051.88;;;19.04;58.96
63399;BME280;49533;-34.520;150.798;2022-10-16T10:04:05;101061.28;;;19.03;58.99
63399;BME280;49533;-34.520;150.798;2022-10-16T10:06:43;101057.75;;;19.03;58.94
63399;BME280;49533;-34.520;150.798;2022-10-16T10:09:20;101056.13;;;19.02;58.90
63399;BME280;49533;-34.520;150.798;2022-10-16T10:11:55;101058.09;;;19.01;58.87
63399;BME280;49533;-34.520;150.798;2022-10-16T10:14:35;101048.94;;;18.97;58.84
63399;BME280;49533;-34.520;150.798;2022-10-16T10:17:14;101049.19;;;18.92;58.72
63399;BME280;49533;-34.520;150.798;2022-10-16T10:19:53;101059.94;;;18.97;58.94
63399;BME280;49533;-34.520;150.798;2022-10-16T10:22:39;101059.03;;;18.93;58.78
63399;BME280;49533;-34.520;150.798;2022-10-16T10:28:32;101052.38;;;18.94;58.91
63399;BME280;49533;-34.520;150.798;2022-10-16T10:31:29;101056.28;;;18.93;58.73
63399;BME280;49533;-34.520;150.798;2022-10-16T10:34:51;101056.63;;;18.92;58.64
63399;BME280;49533;-34.520;150.798;2022-10-16T10:37:02;101061.69;;;18.89;58.52
63399;BME280;49533;-34.520;150.798;2022-10-16T10:39:39;101065.13;;;18.86;58.60
63399;BME280;49533;-34.520;150.798;2022-10-16T10:42:25;101063.53;;;18.85;58.64
63399;BME280;49533;-34.520;150.798;2022-10-16T10:50:58;101063.44;;;18.82;58.65
63399;BME280;49533;-34.520;150.798;2022-10-16T10:53:39;101057.81;;;18.78;58.68
63399;BME280;49533;-34.520;150.798;2022-10-16T10:56:38;101059.78;;;18.78;58.66
63399;BME280;49533;-34.520;150.798;2022-10-16T11:02:33;101063.22;;;18.75;58.76
63399;BME280;49533;-34.520;150.798;2022-10-16T11:05:22;101062.75;;;18.73;58.57
63399;BME280;49533;-34.520;150.798;2022-10-16T11:08:00;101076.50;;;18.73;58.61
63399;BME280;49533;-34.520;150.798;2022-10-16T11:10:34;101071.72;;;18.69;58.58
63399;BME280;49533;-34.520;150.798;2022-10-16T11:13:21;101059.09;;;18.68;58.60
63399;BME280;49533;-34.520;150.798;2022-10-16T11:15:53;101066.47;;;18.64;58.88
63399;BME280;49533;-34.520;150.798;2022-10-16T11:18:30;101069.91;;;18.61;58.87
63399;BME280;49533;-34.520;150.798;2022-10-16T11:21:07;101067.16;;;18.61;58.77
63399;BME280;49533;-34.520;150.798;2022-10-16T11:26:32;101083.22;;;18.59;58.78
63399;BME280;49533;-34.520;150.798;2022-10-16T11:29:02;101078.41;;;18.56;58.71
63399;BME280;49533;-34.520;150.798;2022-10-16T11:31:40;101083.91;;;18.56;58.82
63399;BME280;49533;-34.520;150.798;2022-10-16T11:34:35;101081.50;;;18.55;58.73
63399;BME280;49533;-34.520;150.798;2022-10-16T11:37:08;101088.97;;;18.54;58.61
63399;BME280;49533;-34.520;150.798;2022-10-16T11:39:38;101080.25;;;18.52;58.78
63399;BME280;49533;-34.520;150.798;2022-10-16T11:42:10;101088.41;;;18.49;58.96
63399;BME280;49533;-34.520;150.798;2022-10-16T11:45:03;101085.19;;;18.46;58.95
63399;BME280;49533;-34.520;150.798;2022-10-16T11:47:45;101087.81;;;18.43;58.79
63399;BME280;49533;-34.520;150.798;2022-10-16T11:50:28;101089.91;;;18.46;58.97
63399;BME280;49533;-34.520;150.798;2022-10-16T11:53:13;101093.31;;;18.43;58.82
63399;BME280;49533;-34.520;150.798;2022-10-16T11:55:44;101094.00;;;18.40;59.06
63399;BME280;49533;-34.520;150.798;2022-10-16T11:58:33;101094.38;;;18.38;59.00
63399;BME280;49533;-34.520;150.798;2022-10-16T12:01:21;101093.56;;;18.38;59.07
63399;BME280;49533;-34.520;150.798;2022-10-16T12:03:50;101088.50;;;18.40;58.96
63399;BME280;49533;-34.520;150.798;2022-10-16T12:06:40;101083.72;;;18.37;59.02
63399;BME280;49533;-34.520;150.798;2022-10-16T12:09:26;101086.00;;;18.35;59.00
63399;BME280;49533;-34.520;150.798;2022-10-16T12:11:54;101080.50;;;18.35;59.02
63399;BME280;49533;-34.520;150.798;2022-10-16T12:14:35;101080.03;;;18.33;59.17
63399;BME280;49533;-34.520;150.798;2022-10-16T12:19:57;101075.22;;;18.30;59.22
63399;BME280;49533;-34.520;150.798;2022-10-16T12:22:28;101068.72;;;18.22;59.10
63399;BME280;49533;-34.520;150.798;2022-10-16T12:24:56;101075.94;;;18.27;59.21
63399;BME280;49533;-34.520;150.798;2022-10-16T12:27:30;101070.75;;;18.25;59.17
63399;BME280;49533;-34.520;150.798;2022-10-16T12:30:02;101078.22;;;18.24;59.20
63399;BME280;49533;-34.520;150.798;2022-10-16T12:32:36;101071.13;;;18.23;59.28
63399;BME280;49533;-34.520;150.798;2022-10-16T12:35:19;101074.09;;;18.18;59.07
63399;BME280;49533;-34.520;150.798;2022-10-16T12:37:47;101072.94;;;18.19;59.19
63399;BME280;49533;-34.520;150.798;2022-10-16T12:40:28;101081.09;;;18.16;59.25
63399;BME280;49533;-34.520;150.798;2022-10-16T12:42:56;101086.59;;;18.16;59.23
63399;BME280;49533;-34.520;150.798;2022-10-16T12:45:29;101080.53;;;18.10;59.24
63399;BME280;49533;-34.520;150.798;2022-10-16T12:47:58;101087.63;;;18.11;59.33
63399;BME280;49533;-34.520;150.798;2022-10-16T12:50:33;101083.72;;;18.12;59.35
63399;BME280;49533;-34.520;150.798;2022-10-16T12:53:02;101078.59;;;18.11;59.35
63399;BME280;49533;-34.520;150.798;2022-10-16T12:55:35;101081.66;;;18.09;59.31
63399;BME280;49533;-34.520;150.798;2022-10-16T12:58:20;101077.66;;;18.07;59.43
63399;BME280;49533;-34.520;150.798;2022-10-16T13:00:57;101076.06;;;18.06;59.45
63399;BME280;49533;-34.520;150.798;2022-10-16T13:03:47;101075.59;;;18.03;59.46